Time;durP1;ratioP1;P1;durP2;ratioP2;P2;SDS_P1;SDS_P2;PMS_P1;PMS_P2;Temp;Humidity;BMP_temperature;BMP_pressure;BME280_temperature;BME280_humidity;BME280_pressure;Samples;Min_cycle;Max_cycle;Signal;HPM_P1;HPM_P2
2021/12/03 00:00:56;;;;;;;89.03;63.40;;;;;;;-3.58;94.02;100961.84;10478120;28;20028;-84
2021/12/03 00:05:57;;;;;;;93.03;63.97;;;;;;;-3.60;93.89;100960.78;10478159;28;20043;-84
2021/12/03 00:11:00;;;;;;;88.75;60.88;;;;;;;-3.65;93.88;100959.41;10478393;28;20029;-84
2021/12/03 00:16:01;;;;;;;94.43;65.38;;;;;;;-3.66;94.04;100941.34;10478242;28;20035;-85
2021/12/03 00:21:04;;;;;;;85.15;57.80;;;;;;;-3.74;93.90;100956.78;10460823;28;20036;-85
2021/12/03 00:26:05;;;;;;;107.85;68.20;;;;;;;-3.78;93.93;100953.72;10494779;28;20563;-85
2021/12/03 00:31:06;;;;;;;99.77;64.67;;;;;;;-3.73;94.09;100953.50;10494393;28;20029;-85
2021/12/03 00:36:07;;;;;;;90.15;60.38;;;;;;;-3.66;93.49;100962.69;10477586;28;20119;-85
2021/12/03 00:41:11;;;;;;;106.57;64.18;;;;;;;-3.72;93.71;100954.38;10478416;28;20048;-85
2021/12/03 00:46:15;;;;;;;112.00;70.00;;;;;;;-3.55;93.56;100953.63;10445394;28;20075;-85
2021/12/03 00:51:18;;;;;;;125.35;78.30;;;;;;;-3.59;93.67;100964.28;10479047;28;20435;-86
2021/12/03 00:56:18;;;;;;;107.75;72.65;;;;;;;-3.77;93.59;100976.00;10485415;28;20032;-86
2021/12/03 01:01:19;;;;;;;105.28;66.00;;;;;;;-3.85;93.75;100976.09;10501928;28;20483;-86
2021/12/03 01:06:19;;;;;;;127.22;72.43;;;;;;;-3.74;93.59;100984.94;10500752;28;20127;-86
2021/12/03 01:11:20;;;;;;;121.18;74.35;;;;;;;-3.67;93.79;100981.34;10484803;28;20028;-86
2021/12/03 01:16:20;;;;;;;113.70;72.23;;;;;;;-3.66;94.12;100985.72;10502161;28;20077;-86
2021/12/03 01:21:21;;;;;;;129.85;75.82;;;;;;;-3.60;94.11;100975.25;10501392;28;20063;-86
2021/12/03 01:26:22;;;;;;;130.75;78.18;;;;;;;-3.60;93.52;100973.59;10483632;28;20028;-86
2021/12/03 01:31:22;;;;;;;122.95;68.25;;;;;;;-3.45;94.14;100982.00;10483082;28;20035;-87
2021/12/03 01:36:23;;;;;;;134.48;73.00;;;;;;;-3.44;93.75;100985.44;10502753;28;20068;-86
2021/12/03 01:41:23;;;;;;;144.80;82.47;;;;;;;-3.12;93.50;100988.81;10524696;28;20036;-87
2021/12/03 01:46:24;;;;;;;156.77;80.75;;;;;;;-2.81;93.58;100984.31;10525617;28;20093;-88
2021/12/03 01:51:24;;;;;;;143.55;78.35;;;;;;;-2.62;93.53;100987.84;10523700;28;20079;-87
2021/12/03 01:56:25;;;;;;;165.15;84.18;;;;;;;-2.33;94.39;100997.56;10523848;28;20111;-87
2021/12/03 02:01:26;;;;;;;152.02;82.85;;;;;;;-2.03;94.49;100978.31;10523885;28;20531;-87
2021/12/03 02:06:28;;;;;;;160.13;83.90;;;;;;;-1.88;94.52;100972.16;10507073;28;20067;-86
2021/12/03 02:11:28;;;;;;;145.70;78.73;;;;;;;-1.90;93.84;100959.94;10507491;28;20035;-86
2021/12/03 02:16:29;;;;;;;167.00;83.60;;;;;;;-1.83;93.81;100964.94;10523508;28;20103;-88
2021/12/03 02:21:29;;;;;;;146.55;73.97;;;;;;;-1.76;94.07;100969.91;10522485;28;20038;-87
2021/12/03 02:26:30;;;;;;;169.48;85.15;;;;;;;-1.75;93.98;100979.41;10523497;28;20032;-88
2021/12/03 02:31:30;;;;;;;154.98;75.18;;;;;;;-1.59;93.71;100976.69;10523325;28;20032;-87
2021/12/03 02:36:31;;;;;;;153.63;75.60;;;;;;;-1.67;93.76;100983.66;10522422;28;20068;-87
2021/12/03 02:41:31;;;;;;;136.80;66.18;;;;;;;-1.77;93.99;100971.56;10522107;28;20135;-86
2021/12/03 02:46:32;;;;;;;133.77;68.07;;;;;;;-1.84;94.34;100983.63;10506031;28;20120;-87
2021/12/03 02:51:32;;;;;;;138.93;66.35;;;;;;;-1.78;93.71;100992.84;10521413;28;20127;-87
2021/12/03 02:56:33;;;;;;;122.07;59.60;;;;;;;-1.82;94.40;100990.72;10489310;28;20024;-88
2021/12/03 03:01:33;;;;;;;121.15;67.03;;;;;;;-1.78;94.54;100989.38;10520725;28;20436;-87
2021/12/03 03:06:35;;;;;;;135.65;66.10;;;;;;;-1.55;94.66;100988.16;10540034;28;20020;-86
2021/12/03 03:11:35;;;;;;;112.20;60.47;;;;;;;-1.43;93.87;100970.47;10521119;28;20030;-86
2021/12/03 03:16:36;;;;;;;121.93;62.58;;;;;;;-1.37;94.17;100969.41;10520648;28;20127;-87
2021/12/03 03:21:37;;;;;;;109.22;60.88;;;;;;;-1.33;94.23;100960.34;10504870;28;20021;-86
2021/12/03 03:26:38;;;;;;;101.30;58.97;;;;;;;-1.33;93.63;100971.53;10503884;28;20066;-87
2021/12/03 03:31:38;;;;;;;109.90;59.97;;;;;;;-1.28;93.57;100961.69;10486687;28;20485;-87
2021/12/03 03:36:42;;;;;;;109.68;61.28;;;;;;;-1.23;94.46;100952.75;10520679;28;20044;-87
2021/12/03 03:41:42;;;;;;;97.07;53.60;;;;;;;-1.27;94.01;100949.75;10521744;28;20040;-88
2021/12/03 03:46:43;;;;;;;117.65;57.08;;;;;;;-1.24;94.15;100945.81;10537983;28;20119;-88
2021/12/03 03:51:44;;;;;;;116.63;56.67;;;;;;;-1.19;93.52;100951.41;10503063;28;20020;-88
2021/12/03 03:56:45;;;;;;;105.45;57.30;;;;;;;-1.05;94.50;100960.41;10517166;28;20506;-88
2021/12/03 04:01:46;;;;;;;109.10;59.15;;;;;;;-0.96;94.25;100965.53;10502213;28;20522;-88
2021/12/03 04:06:47;;;;;;;118.63;60.87;;;;;;;-0.90;93.82;100961.88;10503748;28;20032;-88
2021/12/03 04:11:48;;;;;;;134.52;67.00;;;;;;;-0.85;93.74;100956.28;10519899;28;20028;-88
2021/12/03 04:16:48;;;;;;;112.63;59.08;;;;;;;-0.80;93.57;100952.47;10541002;28;20118;-88
2021/12/03 04:21:49;;;;;;;124.05;61.40;;;;;;;-0.75;nan;100936.72;10545881;28;20543;-88
2021/12/03 04:26:49;;;;;;;131.70;58.88;;;;;;;-0.68;93.75;100932.16;10527671;28;20074;-88
2021/12/03 04:31:50;;;;;;;101.28;53.22;;;;;;;-0.60;94.33;100929.53;10528113;28;20484;-87
2021/12/03 04:36:50;;;;;;;118.97;56.50;;;;;;;-0.53;93.61;100922.41;10527939;28;20128;-87
2021/12/03 04:41:51;;;;;;;106.38;52.95;;;;;;;-0.53;93.43;100922.41;10527216;28;20093;-87
2021/12/03 04:46:51;;;;;;;125.63;54.58;;;;;;;-0.41;94.00;100910.66;10527614;28;20096;-88
2021/12/03 04:51:52;;;;;;;151.30;63.03;;;;;;;-0.44;94.13;100930.97;10545379;28;20085;-88
2021/12/03 04:56:53;;;;;;;105.75;50.58;;;;;;;-0.36;93.40;100935.16;10509469;28;20040;-89
2021/12/03 05:01:57;;;;;;;114.15;59.33;;;;;;;-0.33;93.50;100929.41;10526374;28;20425;-87
2021/12/03 05:12:09;;;;;;;;;;;;;;;-0.31;93.75;100933.91;10511159;28;20034;-87
2021/12/03 05:17:10;;;;;;;112.28;55.63;;;;;;;-0.28;94.06;100929.81;10509263;28;19922;-87
2021/12/03 05:22:12;;;;;;;107.50;50.97;;;;;;;-0.28;93.41;100909.22;10525399;28;20805;-85
2021/12/03 05:27:17;;;;;;;98.13;50.45;;;;;;;-0.46;93.33;100917.97;10544491;28;20089;-88
2021/12/03 05:32:18;;;;;;;92.30;48.65;;;;;;;-0.68;93.53;100909.03;10508402;28;20115;-88
2021/12/03 05:37:18;;;;;;;95.88;49.15;;;;;;;-0.71;93.67;100909.63;10542319;28;20488;-88
2021/12/03 05:42:19;;;;;;;92.05;43.97;;;;;;;-0.62;93.59;100919.88;10523753;28;20052;-87
2021/12/03 05:47:21;;;;;;;84.05;44.15;;;;;;;-0.64;92.74;100929.13;10499075;28;20087;-83
2021/12/03 05:52:21;;;;;;;81.10;43.03;;;;;;;-0.61;93.42;100926.84;10542341;28;20586;-81
2021/12/03 05:57:22;;;;;;;75.40;42.05;;;;;;;-0.66;93.40;100933.22;10523223;28;20063;-82
2021/12/03 06:02:22;;;;;;;70.28;42.15;;;;;;;-0.61;92.50;100932.88;10524332;28;20444;-87
2021/12/03 06:07:23;;;;;;;76.35;38.63;;;;;;;-0.54;93.29;100925.72;10506974;28;20072;-88
2021/12/03 06:12:24;;;;;;;64.50;38.42;;;;;;;-0.57;93.40;100928.00;10541437;28;20113;-87
2021/12/03 06:17:24;;;;;;;69.63;37.50;;;;;;;-0.65;92.66;100929.88;10522427;28;20020;-86
2021/12/03 06:22:25;;;;;;;75.22;33.92;;;;;;;-0.68;92.76;100917.63;10521406;28;20056;-86
2021/12/03 06:27:25;;;;;;;72.25;32.65;;;;;;;-0.67;92.39;100933.97;10521748;28;20039;-87
2021/12/03 06:32:26;;;;;;;62.95;30.55;;;;;;;-0.67;93.08;100921.13;10474592;28;20028;-84
2021/12/03 06:37:26;;;;;;;81.65;30.33;;;;;;;-0.72;92.75;100915.53;10518250;28;20051;-85
2021/12/03 06:42:27;;;;;;;58.35;32.15;;;;;;;-0.82;92.29;100907.72;10503583;28;20449;-85
2021/12/03 06:47:28;;;;;;;49.13;23.95;;;;;;;-0.86;92.55;100914.25;10521792;28;20127;-85
2021/12/03 06:52:28;;;;;;;54.50;25.20;;;;;;;-0.80;93.08;100914.84;10539596;28;20062;-85
2021/12/03 06:57:29;;;;;;;52.83;26.77;;;;;;;-0.80;92.27;100916.47;10521835;28;20480;-84
2021/12/03 07:02:29;;;;;;;48.33;22.13;;;;;;;-0.77;92.25;100916.78;10538173;28;20070;-84
2021/12/03 07:07:30;;;;;;;41.22;22.08;;;;;;;-0.68;92.84;100912.50;10487517;28;20031;-85
2021/12/03 07:12:31;;;;;;;43.42;19.85;;;;;;;-0.71;92.76;100912.22;10520437;28;20024;-83
2021/12/03 07:17:33;;;;;;;64.65;22.13;;;;;;;-0.64;92.05;100908.56;10519031;28;20104;-85
2021/12/03 07:22:33;;;;;;;38.35;19.85;;;;;;;-0.57;91.40;100905.78;10501771;28;20158;-84
2021/12/03 07:27:34;;;;;;;53.25;22.60;;;;;;;-0.60;91.32;100920.94;10519582;28;20122;-83
2021/12/03 07:32:34;;;;;;;61.13;18.45;;;;;;;-0.56;91.17;100920.47;10509324;28;20114;-84
2021/12/03 07:37:35;;;;;;;34.03;15.70;;;;;;;-0.55;91.21;100903.34;10518175;28;20036;-84
2021/12/03 07:42:36;;;;;;;47.17;13.65;;;;;;;-0.52;90.74;100906.19;10503056;28;20805;-86
2021/12/03 07:47:37;;;;;;;34.65;13.63;;;;;;;-0.48;90.87;100900.59;10520046;28;20028;-85
2021/12/03 07:52:37;;;;;;;28.02;10.43;;;;;;;-0.36;90.59;100896.56;10484539;28;20085;-83
2021/12/03 07:57:38;;;;;;;31.17;9.95;;;;;;;-0.28;90.16;100906.66;10529712;28;20043;-84
2021/12/03 08:02:38;;;;;;;32.92;12.60;;;;;;;-0.23;90.17;100906.31;10516130;28;20093;-87
2021/12/03 08:07:40;;;;;;;24.60;10.45;;;;;;;-0.13;89.62;100913.19;10494449;28;20390;-84
2021/12/03 08:12:43;;;;;;;23.63;10.82;;;;;;;0.04;89.23;100903.53;10518844;28;20073;-85
2021/12/03 08:17:47;;;;;;;22.13;10.40;;;;;;;0.23;88.80;100909.56;10518266;28;20080;-83
2021/12/03 08:22:48;;;;;;;24.27;12.85;;;;;;;0.37;89.12;100899.59;10536737;28;20559;-79
2021/12/03 08:27:48;;;;;;;18.95;10.32;;;;;;;0.42;87.97;100888.97;10535653;28;20032;-84
2021/12/03 08:32:49;;;;;;;17.90;8.88;;;;;;;0.43;86.97;100889.84;10518016;28;20047;-84
2021/12/03 08:37:50;;;;;;;17.85;10.32;;;;;;;0.49;86.89;100892.06;10518058;28;20464;-84
2021/12/03 08:42:51;;;;;;;27.00;11.40;;;;;;;0.54;86.80;100886.53;10518603;28;20028;-86
2021/12/03 08:47:56;;;;;;;18.10;8.27;;;;;;;0.54;86.16;100889.13;10517959;28;20024;-84
2021/12/03 08:53:14;;;;;;;17.08;10.13;;;;;;;0.63;86.16;100882.97;10518410;28;20038;-84
2021/12/03 08:58:16;;;;;;;17.73;10.40;;;;;;;0.75;86.06;100884.03;10521534;28;20118;-84
2021/12/03 09:03:17;;;;;;;19.80;8.90;;;;;;;0.80;86.13;100877.63;10493423;28;20032;-84
2021/12/03 09:08:17;;;;;;;15.50;7.43;;;;;;;0.98;85.07;100882.56;10539427;28;20142;-84
2021/12/03 09:13:18;;;;;;;16.05;6.90;;;;;;;1.22;83.88;100862.22;10525974;28;20031;-84
2021/12/03 09:18:27;;;;;;;18.38;6.53;;;;;;;1.28;82.47;100870.47;10525268;28;20106;-84
2021/12/03 09:28:32;;;;;;;28.60;7.65;;;;;;;1.61;83.94;100866.34;10524775;28;20035;-84
2021/12/03 09:33:35;;;;;;;9.77;4.63;;;;;;;1.79;81.12;100876.41;10525380;28;20490;-84
2021/12/03 09:38:36;;;;;;;13.18;7.10;;;;;;;1.97;80.10;100870.19;10508298;28;20043;-84
2021/12/03 09:43:43;;;;;;;15.63;6.82;;;;;;;1.96;81.07;100872.66;10525393;28;20032;-83
2021/12/03 10:15:38;;;;;;;17.80;6.30;;;;;;;2.15;79.93;100842.41;10509915;28;20095;-85
2021/12/03 10:41:46;;;;;;;23.02;7.47;;;;;;;2.51;78.76;100778.03;10509909;28;20043;-85
2021/12/03 11:29:35;;;;;;;14.60;6.53;;;;;;;3.10;77.27;100683.38;10522032;28;20031;-84
2021/12/03 11:35:10;;;;;;;17.33;8.07;;;;;;;3.30;76.99;100687.44;10502392;28;20043;-83
2021/12/03 13:23:34;;;;;;;24.10;9.77;;;;;;;3.62;72.78;100490.53;10508888;28;20093;-85
2021/12/03 14:00:05;;;;;;;12.27;5.18;;;;;;;3.12;74.74;100449.97;10526537;28;20020;-89
2021/12/03 14:57:59;;;;;;;9.65;5.25;;;;;;;2.68;79.44;100411.50;10522427;28;20119;-89
2021/12/03 15:08:07;;;;;;;9.37;5.47;;;;;;;2.51;81.10;100424.09;10506994;28;20051;-88
2021/12/03 15:39:07;;;;;;;10.07;5.93;;;;;;;2.17;84.61;100409.63;10517488;28;20032;-89
2021/12/03 15:55:14;;;;;;;12.77;7.17;;;;;;;2.54;81.59;100377.81;10490880;28;20131;-92
2021/12/03 16:05:55;;;;;;;10.57;6.78;;;;;;;2.68;80.22;100383.97;10492828;28;20392;-88
2021/12/03 16:11:04;;;;;;;6.00;2.70;;;;;;;2.67;80.80;100369.25;10506835;28;20031;-90
2021/12/03 16:48:32;;;;;;;8.18;3.80;;;;;;;2.34;84.53;100338.53;10520067;28;20126;-85
2021/12/03 16:53:08;;;;;;;6.80;3.58;;;;;;;2.30;84.78;100341.66;10518756;28;20410;-85
2021/12/03 16:58:08;;;;;;;6.03;3.72;;;;;;;2.27;84.88;100345.72;10487983;28;20060;-86
2021/12/03 17:03:21;;;;;;;4.80;3.30;;;;;;;2.22;85.50;100323.84;10478816;28;20472;-84
2021/12/03 18:00:40;;;;;;;11.68;7.90;;;;;;;1.88;90.09;100271.56;10541365;28;20097;-83
2021/12/03 18:11:00;;;;;;;10.57;7.07;;;;;;;1.86;89.50;100241.25;10541167;28;20127;-82
2021/12/03 18:58:06;;;;;;;3.05;2.38;;;;;;;2.38;84.36;100171.78;10502785;28;20188;-83
2021/12/03 19:13:39;;;;;;;6.13;2.40;;;;;;;2.47;83.89;100184.41;10522927;28;20119;-87
2021/12/03 19:18:44;;;;;;;6.20;3.92;;;;;;;2.48;83.92;100175.88;10500813;28;20024;-84
2021/12/03 19:23:45;;;;;;;9.48;5.43;;;;;;;2.43;83.59;100180.75;10504446;28;20032;-83
2021/12/03 19:28:47;;;;;;;5.40;3.40;;;;;;;2.40;84.25;100174.44;10500605;28;20081;-88
2021/12/03 19:33:47;;;;;;;8.60;6.10;;;;;;;2.34;84.80;100180.09;10503786;28;20035;-90
2021/12/03 19:38:49;;;;;;;7.00;4.97;;;;;;;2.37;84.52;100153.56;10538332;28;20297;-91
2021/12/03 19:43:53;;;;;;;10.43;4.82;;;;;;;2.30;85.18;100144.53;10518511;28;20032;-91
2021/12/03 19:49:05;;;;;;;7.20;3.80;;;;;;;2.26;84.91;100138.22;10520776;28;20028;-91
2021/12/03 19:54:06;;;;;;;6.75;3.83;;;;;;;2.24;85.61;100149.25;10521548;28;20028;-89
2021/12/03 19:59:06;;;;;;;5.82;3.72;;;;;;;2.24;85.22;100151.84;10520512;28;20466;-90
2021/12/03 20:04:07;;;;;;;7.68;4.13;;;;;;;2.27;84.66;100152.94;10519792;28;20031;-89
2021/12/03 20:09:11;;;;;;;7.03;3.75;;;;;;;2.26;85.00;100120.16;10520852;28;20073;-88
2021/12/03 20:14:13;;;;;;;6.65;4.70;;;;;;;2.26;84.90;100148.56;10519552;28;20027;-89
2021/12/03 20:19:21;;;;;;;5.43;3.45;;;;;;;2.28;84.44;100141.81;10483310;28;20552;-83
2021/12/03 20:24:29;;;;;;;5.70;3.65;;;;;;;2.24;84.95;100137.22;10518455;28;20055;-89
2021/12/03 20:29:39;;;;;;;4.88;3.00;;;;;;;2.26;85.02;100129.59;10502757;28;20035;-90
2021/12/03 20:39:45;;;;;;;5.05;3.10;;;;;;;2.28;84.90;100136.66;10460615;28;20045;-85
2021/12/03 21:10:45;;;;;;;2.75;1.75;;;;;;;2.31;84.44;100092.97;10529075;28;20028;-90
2021/12/03 21:16:03;;;;;;;6.32;3.30;;;;;;;2.29;85.09;100078.16;10528380;28;20044;-86
2021/12/03 21:21:12;;;;;;;7.45;2.85;;;;;;;2.18;86.16;100075.75;10511325;28;20024;-85
2021/12/03 21:26:24;;;;;;;6.85;4.38;;;;;;;2.02;87.65;100065.16;10526550;28;20035;-89
2021/12/03 21:31:39;;;;;;;7.28;4.03;;;;;;;1.92;88.53;100062.72;10528137;28;20028;-86
2021/12/03 21:41:58;;;;;;;11.13;5.85;;;;;;;1.85;89.35;100056.22;10443366;28;20037;-88
2021/12/03 21:46:59;;;;;;;8.27;6.25;;;;;;;1.82;89.65;100050.88;10457784;28;20068;-89
2021/12/03 21:52:00;;;;;;;6.85;5.38;;;;;;;1.81;90.01;100049.06;10440935;28;20060;-85
2021/12/03 21:57:02;;;;;;;7.95;5.68;;;;;;;1.80;90.11;100050.78;10458311;28;20112;-88
2021/12/03 22:02:02;;;;;;;6.70;5.30;;;;;;;1.79;90.05;100030.91;10441776;28;20044;-88
2021/12/03 22:07:10;;;;;;;10.20;7.32;;;;;;;1.82;90.30;100019.91;10442653;28;20484;-89
2021/12/03 22:12:10;;;;;;;7.75;6.03;;;;;;;1.83;90.25;100037.16;10456835;28;20056;-89
2021/12/03 22:17:11;;;;;;;6.65;4.70;;;;;;;1.83;90.27;100026.84;10459240;28;20108;-89
2021/12/03 22:22:12;;;;;;;5.82;4.22;;;;;;;1.82;90.38;100018.22;10456599;28;20025;-89
2021/12/03 22:27:12;;;;;;;5.50;3.88;;;;;;;1.86;90.70;100016.75;10457075;28;20480;-86
2021/12/03 22:32:13;;;;;;;7.20;3.90;;;;;;;1.88;90.14;100020.31;10456386;28;20059;-87
2021/12/03 22:37:13;;;;;;;8.00;5.18;;;;;;;1.88;90.09;100012.56;10464341;28;20528;-87
2021/12/03 22:42:14;;;;;;;8.18;5.75;;;;;;;1.95;90.23;100019.94;10481044;28;20043;-87
2021/12/03 22:47:20;;;;;;;7.68;6.00;;;;;;;1.93;90.30;100002.59;10519858;28;20500;-87
2021/12/03 22:52:22;;;;;;;12.38;8.27;;;;;;;1.97;90.09;99991.69;10539927;28;20028;-87
2021/12/03 22:57:22;;;;;;;10.60;6.47;;;;;;;1.89;90.13;99989.47;10522434;28;20122;-88
2021/12/03 23:02:23;;;;;;;9.57;7.25;;;;;;;1.94;90.10;99979.44;10522269;28;20115;-87
2021/12/03 23:07:23;;;;;;;11.50;8.85;;;;;;;1.99;89.82;99974.63;10462799;28;20029;-88
2021/12/03 23:12:24;;;;;;;9.18;6.25;;;;;;;1.96;89.79;99957.22;10462070;28;20039;-89
2021/12/03 23:17:24;;;;;;;6.45;5.50;;;;;;;2.00;90.22;99966.97;10491329;28;20122;-86
2021/12/03 23:22:25;;;;;;;7.82;5.10;;;;;;;2.05;89.93;99954.38;10504780;28;20066;-88
2021/12/03 23:27:25;;;;;;;7.45;5.22;;;;;;;2.07;89.94;99938.97;10503474;28;20168;-88
2021/12/03 23:32:26;;;;;;;6.38;4.38;;;;;;;2.11;89.21;99941.88;10538912;28;20056;-88
2021/12/03 23:37:28;;;;;;;6.57;4.85;;;;;;;2.20;88.38;99933.84;10521173;28;20567;-88
2021/12/03 23:42:28;;;;;;;;;;;;;;;2.27;88.04;99925.69;10520910;28;20036;-89
2021/12/03 23:47:29;;;;;;;10.82;4.47;;;;;;;2.29;88.14;99923.22;10503847;28;20368;-86
2021/12/03 23:52:29;;;;;;;5.47;3.28;;;;;;;2.45;86.91;99918.28;10518739;28;20120;-90
2021/12/03 23:57:30;;;;;;;4.22;2.72;;;;;;;2.40;86.94;99908.41;10520757;28;20036;-90
